sensor_id;sensor_type;location;lat;lon;timestamp;temperature;humidity
25825;DHT22;13658;44.534;18.694;2023-05-16T00:01:38;14.90;99.90
25825;DHT22;13658;44.534;18.694;2023-05-16T00:04:04;15.00;99.90
25825;DHT22;13658;44.534;18.694;2023-05-16T00:06:30;15.00;99.90
25825;DHT22;13658;44.534;18.694;2023-05-16T00:08:56;15.00;99.90
25825;DHT22;13658;44.534;18.694;2023-05-16T00:11:22;14.90;99.90
25825;DHT22;13658;44.534;18.694;2023-05-16T00:13:48;14.90;99.90
25825;DHT22;13658;44.534;18.694;2023-05-16T00:16:14;14.90;99.90
25825;DHT22;13658;44.534;18.694;2023-05-16T00:18:40;14.90;99.90
25825;DHT22;13658;44.534;18.694;2023-05-16T00:21:06;14.80;99.90
25825;DHT22;13658;44.534;18.694;2023-05-16T00:23:32;14.90;99.90
25825;DHT22;13658;44.534;18.694;2023-05-16T00:25:58;14.90;99.90
25825;DHT22;13658;44.534;18.694;2023-05-16T00:28:24;14.90;99.90
25825;DHT22;13658;44.534;18.694;2023-05-16T00:30:50;14.80;99.90
25825;DHT22;13658;44.534;18.694;2023-05-16T00:33:19;14.80;99.90
25825;DHT22;13658;44.534;18.694;2023-05-16T00:35:45;14.80;99.90
25825;DHT22;13658;44.534;18.694;2023-05-16T00:38:12;14.80;99.90
25825;DHT22;13658;44.534;18.694;2023-05-16T00:40:38;14.80;99.90
25825;DHT22;13658;44.534;18.694;2023-05-16T00:43:04;14.80;99.90
25825;DHT22;13658;44.534;18.694;2023-05-16T00:45:29;14.80;99.90
25825;DHT22;13658;44.534;18.694;2023-05-16T00:47:55;14.80;99.90
25825;DHT22;13658;44.534;18.694;2023-05-16T00:50:21;14.80;99.90
25825;DHT22;13658;44.534;18.694;2023-05-16T00:52:48;14.90;99.90
25825;DHT22;13658;44.534;18.694;2023-05-16T00:55:14;14.90;99.90
25825;DHT22;13658;44.534;18.694;2023-05-16T00:57:40;14.90;99.90
25825;DHT22;13658;44.534;18.694;2023-05-16T01:00:08;14.80;99.90
25825;DHT22;13658;44.534;18.694;2023-05-16T01:02:37;14.80;99.90
25825;DHT22;13658;44.534;18.694;2023-05-16T01:05:04;14.80;99.90
25825;DHT22;13658;44.534;18.694;2023-05-16T01:07:30;14.80;99.90
25825;DHT22;13658;44.534;18.694;2023-05-16T01:09:57;14.80;99.90
25825;DHT22;13658;44.534;18.694;2023-05-16T01:12:30;14.80;99.90
25825;DHT22;13658;44.534;18.694;2023-05-16T01:15:46;14.80;99.90
25825;DHT22;13658;44.534;18.694;2023-05-16T01:18:24;14.80;99.90
25825;DHT22;13658;44.534;18.694;2023-05-16T01:20:59;14.80;99.90
25825;DHT22;13658;44.534;18.694;2023-05-16T01:23:58;14.80;99.90
25825;DHT22;13658;44.534;18.694;2023-05-16T01:26:26;14.70;99.90
25825;DHT22;13658;44.534;18.694;2023-05-16T01:28:53;14.70;99.90
25825;DHT22;13658;44.534;18.694;2023-05-16T01:31:20;14.70;99.90
25825;DHT22;13658;44.534;18.694;2023-05-16T01:33:47;14.70;99.90
25825;DHT22;13658;44.534;18.694;2023-05-16T01:36:25;14.70;99.90
25825;DHT22;13658;44.534;18.694;2023-05-16T01:39:16;14.70;99.90
25825;DHT22;13658;44.534;18.694;2023-05-16T01:42:04;14.70;99.90
25825;DHT22;13658;44.534;18.694;2023-05-16T01:44:34;14.70;99.90
25825;DHT22;13658;44.534;18.694;2023-05-16T01:47:04;14.70;99.90
25825;DHT22;13658;44.534;18.694;2023-05-16T01:49:49;14.70;99.90
25825;DHT22;13658;44.534;18.694;2023-05-16T01:52:23;14.70;99.90
25825;DHT22;13658;44.534;18.694;2023-05-16T01:54:52;14.70;99.90
25825;DHT22;13658;44.534;18.694;2023-05-16T01:57:23;14.60;99.90
25825;DHT22;13658;44.534;18.694;2023-05-16T01:59:49;14.70;99.90
25825;DHT22;13658;44.534;18.694;2023-05-16T02:02:19;14.70;99.90
25825;DHT22;13658;44.534;18.694;2023-05-16T02:04:45;14.70;99.90
25825;DHT22;13658;44.534;18.694;2023-05-16T02:07:14;14.60;99.90
25825;DHT22;13658;44.534;18.694;2023-05-16T02:09:40;14.70;99.90
25825;DHT22;13658;44.534;18.694;2023-05-16T02:12:06;14.70;99.90
25825;DHT22;13658;44.534;18.694;2023-05-16T02:14:32;14.70;99.90
25825;DHT22;13658;44.534;18.694;2023-05-16T02:16:58;14.70;99.90
25825;DHT22;13658;44.534;18.694;2023-05-16T02:19:24;14.70;99.90
25825;DHT22;13658;44.534;18.694;2023-05-16T02:21:50;14.70;99.90
25825;DHT22;13658;44.534;18.694;2023-05-16T02:24:16;14.70;99.90
25825;DHT22;13658;44.534;18.694;2023-05-16T02:26:42;14.60;99.90
25825;DHT22;13658;44.534;18.694;2023-05-16T02:29:09;14.70;99.90
25825;DHT22;13658;44.534;18.694;2023-05-16T02:31:35;14.70;99.90
25825;DHT22;13658;44.534;18.694;2023-05-16T02:34:01;14.70;99.90
25825;DHT22;13658;44.534;18.694;2023-05-16T02:36:28;14.70;99.90
25825;DHT22;13658;44.534;18.694;2023-05-16T02:38:54;14.70;99.90
25825;DHT22;13658;44.534;18.694;2023-05-16T02:41:21;14.70;99.90
25825;DHT22;13658;44.534;18.694;2023-05-16T02:43:48;14.60;99.90
25825;DHT22;13658;44.534;18.694;2023-05-16T02:46:25;14.60;99.90
25825;DHT22;13658;44.534;18.694;2023-05-16T02:48:52;14.60;99.90
25825;DHT22;13658;44.534;18.694;2023-05-16T02:51:24;14.60;99.90
25825;DHT22;13658;44.534;18.694;2023-05-16T02:53:51;14.60;99.90
25825;DHT22;13658;44.534;18.694;2023-05-16T02:56:18;14.50;99.90
25825;DHT22;13658;44.534;18.694;2023-05-16T02:58:48;14.50;99.90
25825;DHT22;13658;44.534;18.694;2023-05-16T03:01:15;14.50;99.90
25825;DHT22;13658;44.534;18.694;2023-05-16T03:03:42;14.50;99.90
25825;DHT22;13658;44.534;18.694;2023-05-16T03:06:07;14.50;99.90
25825;DHT22;13658;44.534;18.694;2023-05-16T03:08:33;14.40;99.90
25825;DHT22;13658;44.534;18.694;2023-05-16T03:11:00;14.40;99.90
25825;DHT22;13658;44.534;18.694;2023-05-16T03:13:26;14.40;99.90
25825;DHT22;13658;44.534;18.694;2023-05-16T03:15:52;14.40;99.90
25825;DHT22;13658;44.534;18.694;2023-05-16T03:18:18;14.50;99.90
25825;DHT22;13658;44.534;18.694;2023-05-16T03:20:44;14.40;99.90
25825;DHT22;13658;44.534;18.694;2023-05-16T03:23:10;14.40;99.90
25825;DHT22;13658;44.534;18.694;2023-05-16T03:25:37;14.50;99.90
25825;DHT22;13658;44.534;18.694;2023-05-16T03:28:06;14.50;99.90
25825;DHT22;13658;44.534;18.694;2023-05-16T03:30:33;14.40;99.90
25825;DHT22;13658;44.534;18.694;2023-05-16T03:32:59;14.50;99.90
25825;DHT22;13658;44.534;18.694;2023-05-16T03:35:26;14.50;99.90
25825;DHT22;13658;44.534;18.694;2023-05-16T03:37:53;14.50;99.90
25825;DHT22;13658;44.534;18.694;2023-05-16T03:40:19;14.50;99.90
25825;DHT22;13658;44.534;18.694;2023-05-16T03:42:46;14.50;99.90
25825;DHT22;13658;44.534;18.694;2023-05-16T03:45:11;14.50;99.90
25825;DHT22;13658;44.534;18.694;2023-05-16T03:47:37;14.50;99.90
25825;DHT22;13658;44.534;18.694;2023-05-16T03:50:04;14.50;99.90
25825;DHT22;13658;44.534;18.694;2023-05-16T03:52:31;14.50;99.90
25825;DHT22;13658;44.534;18.694;2023-05-16T03:54:56;14.50;99.90
25825;DHT22;13658;44.534;18.694;2023-05-16T03:57:22;14.50;99.90
25825;DHT22;13658;44.534;18.694;2023-05-16T03:59:48;14.50;99.90
25825;DHT22;13658;44.534;18.694;2023-05-16T04:02:14;14.60;99.90
25825;DHT22;13658;44.534;18.694;2023-05-16T04:04:40;14.50;99.90
25825;DHT22;13658;44.534;18.694;2023-05-16T04:07:06;14.50;99.90
25825;DHT22;13658;44.534;18.694;2023-05-16T04:09:32;14.50;99.90
25825;DHT22;13658;44.534;18.694;2023-05-16T04:11:58;14.50;99.90
25825;DHT22;13658;44.534;18.694;2023-05-16T04:14:26;14.50;99.90
25825;DHT22;13658;44.534;18.694;2023-05-16T04:16:52;14.50;99.90
25825;DHT22;13658;44.534;18.694;2023-05-16T04:19:18;14.60;99.90
25825;DHT22;13658;44.534;18.694;2023-05-16T04:21:44;14.60;99.90
25825;DHT22;13658;44.534;18.694;2023-05-16T04:24:10;14.60;99.90
25825;DHT22;13658;44.534;18.694;2023-05-16T04:26:36;14.60;99.90
25825;DHT22;13658;44.534;18.694;2023-05-16T04:29:02;14.60;99.90
25825;DHT22;13658;44.534;18.694;2023-05-16T04:31:28;14.60;99.90
25825;DHT22;13658;44.534;18.694;2023-05-16T04:33:54;14.60;99.90
25825;DHT22;13658;44.534;18.694;2023-05-16T04:36:20;14.60;99.90
25825;DHT22;13658;44.534;18.694;2023-05-16T04:38:46;14.60;99.90
25825;DHT22;13658;44.534;18.694;2023-05-16T04:41:13;14.60;99.90
25825;DHT22;13658;44.534;18.694;2023-05-16T04:43:39;14.70;99.90
25825;DHT22;13658;44.534;18.694;2023-05-16T04:46:05;14.70;99.90
25825;DHT22;13658;44.534;18.694;2023-05-16T04:48:34;14.60;99.90
25825;DHT22;13658;44.534;18.694;2023-05-16T04:51:00;14.60;99.90
25825;DHT22;13658;44.534;18.694;2023-05-16T04:53:26;14.70;99.90
25825;DHT22;13658;44.534;18.694;2023-05-16T04:55:53;14.80;99.90
25825;DHT22;13658;44.534;18.694;2023-05-16T04:58:19;14.80;99.90
25825;DHT22;13658;44.534;18.694;2023-05-16T05:00:45;14.80;99.90
25825;DHT22;13658;44.534;18.694;2023-05-16T05:03:12;14.90;99.90
25825;DHT22;13658;44.534;18.694;2023-05-16T05:05:38;14.90;99.90
25825;DHT22;13658;44.534;18.694;2023-05-16T05:08:04;14.90;99.90
25825;DHT22;13658;44.534;18.694;2023-05-16T05:10:30;15.00;99.90
25825;DHT22;13658;44.534;18.694;2023-05-16T05:12:56;15.00;99.90
25825;DHT22;13658;44.534;18.694;2023-05-16T05:15:22;14.90;99.90
25825;DHT22;13658;44.534;18.694;2023-05-16T05:17:48;14.90;99.90
25825;DHT22;13658;44.534;18.694;2023-05-16T05:20:14;14.90;99.90
25825;DHT22;13658;44.534;18.694;2023-05-16T05:22:40;14.90;99.90
25825;DHT22;13658;44.534;18.694;2023-05-16T05:25:06;14.90;99.90
25825;DHT22;13658;44.534;18.694;2023-05-16T05:27:32;15.00;99.90
25825;DHT22;13658;44.534;18.694;2023-05-16T05:29:58;14.90;99.90
25825;DHT22;13658;44.534;18.694;2023-05-16T05:32:24;14.90;99.90
25825;DHT22;13658;44.534;18.694;2023-05-16T05:34:50;14.90;99.90
25825;DHT22;13658;44.534;18.694;2023-05-16T05:37:17;14.90;99.90
25825;DHT22;13658;44.534;18.694;2023-05-16T05:39:43;14.90;99.90
25825;DHT22;13658;44.534;18.694;2023-05-16T05:42:09;15.00;99.90
25825;DHT22;13658;44.534;18.694;2023-05-16T05:44:37;15.00;99.90
25825;DHT22;13658;44.534;18.694;2023-05-16T05:47:04;15.00;99.90
25825;DHT22;13658;44.534;18.694;2023-05-16T05:49:31;15.00;99.90
25825;DHT22;13658;44.534;18.694;2023-05-16T05:51:57;15.00;99.90
25825;DHT22;13658;44.534;18.694;2023-05-16T05:54:23;15.00;99.90
25825;DHT22;13658;44.534;18.694;2023-05-16T05:56:49;15.00;99.90
25825;DHT22;13658;44.534;18.694;2023-05-16T05:59:15;15.00;99.90
25825;DHT22;13658;44.534;18.694;2023-05-16T06:01:41;15.10;99.90
25825;DHT22;13658;44.534;18.694;2023-05-16T06:04:09;15.00;99.90
25825;DHT22;13658;44.534;18.694;2023-05-16T06:06:36;15.00;99.90
25825;DHT22;13658;44.534;18.694;2023-05-16T06:09:03;15.10;99.90
25825;DHT22;13658;44.534;18.694;2023-05-16T06:11:28;15.00;99.90
25825;DHT22;13658;44.534;18.694;2023-05-16T06:13:55;15.00;99.90
25825;DHT22;13658;44.534;18.694;2023-05-16T06:16:26;15.00;99.90
25825;DHT22;13658;44.534;18.694;2023-05-16T06:18:52;15.00;99.90
25825;DHT22;13658;44.534;18.694;2023-05-16T06:21:18;15.00;99.90
25825;DHT22;13658;44.534;18.694;2023-05-16T06:23:44;15.10;99.90
25825;DHT22;13658;44.534;18.694;2023-05-16T06:26:10;15.00;99.90
25825;DHT22;13658;44.534;18.694;2023-05-16T06:28:36;15.00;99.90
25825;DHT22;13658;44.534;18.694;2023-05-16T06:31:02;15.10;99.90
25825;DHT22;13658;44.534;18.694;2023-05-16T06:33:28;15.00;99.90
25825;DHT22;13658;44.534;18.694;2023-05-16T06:35:54;15.00;99.90
25825;DHT22;13658;44.534;18.694;2023-05-16T06:38:20;14.90;99.90
25825;DHT22;13658;44.534;18.694;2023-05-16T06:40:46;14.90;99.90
25825;DHT22;13658;44.534;18.694;2023-05-16T06:43:12;14.90;99.90
25825;DHT22;13658;44.534;18.694;2023-05-16T06:45:38;15.00;99.90
25825;DHT22;13658;44.534;18.694;2023-05-16T06:48:05;15.10;99.90
25825;DHT22;13658;44.534;18.694;2023-05-16T06:50:32;15.10;99.90
25825;DHT22;13658;44.534;18.694;2023-05-16T06:53:00;15.00;99.90
25825;DHT22;13658;44.534;18.694;2023-05-16T06:55:26;15.00;99.90
25825;DHT22;13658;44.534;18.694;2023-05-16T06:57:52;15.10;99.90
25825;DHT22;13658;44.534;18.694;2023-05-16T07:00:18;15.20;99.90
25825;DHT22;13658;44.534;18.694;2023-05-16T07:02:44;15.30;99.90
25825;DHT22;13658;44.534;18.694;2023-05-16T07:05:10;15.30;99.90
25825;DHT22;13658;44.534;18.694;2023-05-16T07:07:36;15.40;99.90
25825;DHT22;13658;44.534;18.694;2023-05-16T07:10:03;15.40;99.90
25825;DHT22;13658;44.534;18.694;2023-05-16T07:12:29;15.50;99.90
25825;DHT22;13658;44.534;18.694;2023-05-16T07:14:55;15.60;99.90
25825;DHT22;13658;44.534;18.694;2023-05-16T07:17:21;15.80;99.90
25825;DHT22;13658;44.534;18.694;2023-05-16T07:19:48;16.00;99.90
25825;DHT22;13658;44.534;18.694;2023-05-16T07:22:15;16.30;99.90
25825;DHT22;13658;44.534;18.694;2023-05-16T07:24:40;16.80;99.90
25825;DHT22;13658;44.534;18.694;2023-05-16T07:27:06;17.60;99.90
25825;DHT22;13658;44.534;18.694;2023-05-16T07:29:32;18.60;99.90
25825;DHT22;13658;44.534;18.694;2023-05-16T07:31:58;19.60;99.90
25825;DHT22;13658;44.534;18.694;2023-05-16T07:34:24;20.50;99.90
25825;DHT22;13658;44.534;18.694;2023-05-16T07:36:51;21.10;99.90
25825;DHT22;13658;44.534;18.694;2023-05-16T07:39:16;21.50;99.90
25825;DHT22;13658;44.534;18.694;2023-05-16T07:41:42;22.20;99.90
25825;DHT22;13658;44.534;18.694;2023-05-16T07:44:08;22.50;99.90
25825;DHT22;13658;44.534;18.694;2023-05-16T07:46:34;22.40;99.90
25825;DHT22;13658;44.534;18.694;2023-05-16T07:49:00;22.70;99.90
25825;DHT22;13658;44.534;18.694;2023-05-16T07:51:26;22.00;99.90
25825;DHT22;13658;44.534;18.694;2023-05-16T07:53:53;21.40;99.90
25825;DHT22;13658;44.534;18.694;2023-05-16T07:56:19;21.00;99.90
25825;DHT22;13658;44.534;18.694;2023-05-16T07:58:46;20.80;99.90
25825;DHT22;13658;44.534;18.694;2023-05-16T08:01:13;20.70;99.90
25825;DHT22;13658;44.534;18.694;2023-05-16T08:03:39;20.30;99.90
25825;DHT22;13658;44.534;18.694;2023-05-16T08:06:05;20.30;99.90
25825;DHT22;13658;44.534;18.694;2023-05-16T08:08:31;20.20;99.90
25825;DHT22;13658;44.534;18.694;2023-05-16T08:10:57;20.40;99.90
25825;DHT22;13658;44.534;18.694;2023-05-16T08:13:23;20.50;99.90
25825;DHT22;13658;44.534;18.694;2023-05-16T08:15:49;20.60;99.90
25825;DHT22;13658;44.534;18.694;2023-05-16T08:18:15;20.60;99.90
25825;DHT22;13658;44.534;18.694;2023-05-16T08:20:41;20.60;99.90
25825;DHT22;13658;44.534;18.694;2023-05-16T08:23:08;20.60;99.90
25825;DHT22;13658;44.534;18.694;2023-05-16T08:25:34;21.30;99.90
25825;DHT22;13658;44.534;18.694;2023-05-16T08:28:00;21.70;99.90
25825;DHT22;13658;44.534;18.694;2023-05-16T08:30:27;21.70;99.90
25825;DHT22;13658;44.534;18.694;2023-05-16T08:32:54;21.60;99.90
25825;DHT22;13658;44.534;18.694;2023-05-16T08:35:20;21.60;99.90
25825;DHT22;13658;44.534;18.694;2023-05-16T08:37:45;21.50;99.90
25825;DHT22;13658;44.534;18.694;2023-05-16T08:40:12;21.30;99.90
25825;DHT22;13658;44.534;18.694;2023-05-16T08:42:39;20.80;99.90
25825;DHT22;13658;44.534;18.694;2023-05-16T08:45:06;20.50;99.90
25825;DHT22;13658;44.534;18.694;2023-05-16T08:47:33;20.20;99.90
25825;DHT22;13658;44.534;18.694;2023-05-16T08:50:02;20.10;99.90
25825;DHT22;13658;44.534;18.694;2023-05-16T08:52:31;20.20;99.90
25825;DHT22;13658;44.534;18.694;2023-05-16T08:55:03;20.60;99.90
25825;DHT22;13658;44.534;18.694;2023-05-16T08:57:36;21.70;99.90
25825;DHT22;13658;44.534;18.694;2023-05-16T09:00:03;22.00;99.90
25825;DHT22;13658;44.534;18.694;2023-05-16T09:02:35;22.70;99.90
25825;DHT22;13658;44.534;18.694;2023-05-16T09:05:02;23.60;99.90
25825;DHT22;13658;44.534;18.694;2023-05-16T09:07:29;24.70;99.90
25825;DHT22;13658;44.534;18.694;2023-05-16T09:09:55;25.40;99.90
25825;DHT22;13658;44.534;18.694;2023-05-16T09:12:21;25.40;99.90
25825;DHT22;13658;44.534;18.694;2023-05-16T09:14:47;25.80;99.90
25825;DHT22;13658;44.534;18.694;2023-05-16T09:17:13;26.10;99.90
25825;DHT22;13658;44.534;18.694;2023-05-16T09:19:41;26.10;99.90
25825;DHT22;13658;44.534;18.694;2023-05-16T09:22:12;26.20;99.90
25825;DHT22;13658;44.534;18.694;2023-05-16T09:24:43;26.10;99.90
25825;DHT22;13658;44.534;18.694;2023-05-16T09:27:14;25.40;99.90
25825;DHT22;13658;44.534;18.694;2023-05-16T09:29:44;25.00;99.90
25825;DHT22;13658;44.534;18.694;2023-05-16T09:32:12;24.30;99.90
25825;DHT22;13658;44.534;18.694;2023-05-16T09:34:47;23.60;99.90
25825;DHT22;13658;44.534;18.694;2023-05-16T09:37:17;23.30;99.90
25825;DHT22;13658;44.534;18.694;2023-05-16T09:39:48;22.90;99.90
25825;DHT22;13658;44.534;18.694;2023-05-16T09:42:15;22.70;99.90
25825;DHT22;13658;44.534;18.694;2023-05-16T09:44:47;22.60;99.90
25825;DHT22;13658;44.534;18.694;2023-05-16T09:47:14;22.90;99.90
25825;DHT22;13658;44.534;18.694;2023-05-16T09:49:41;23.20;99.90
25825;DHT22;13658;44.534;18.694;2023-05-16T09:52:07;23.90;99.90
25825;DHT22;13658;44.534;18.694;2023-05-16T09:54:34;24.40;99.90
25825;DHT22;13658;44.534;18.694;2023-05-16T09:57:00;24.70;99.90
25825;DHT22;13658;44.534;18.694;2023-05-16T09:59:34;24.70;99.90
25825;DHT22;13658;44.534;18.694;2023-05-16T10:02:00;25.00;99.90
25825;DHT22;13658;44.534;18.694;2023-05-16T10:04:27;24.70;99.90
25825;DHT22;13658;44.534;18.694;2023-05-16T10:06:57;24.80;99.90
25825;DHT22;13658;44.534;18.694;2023-05-16T10:09:26;24.60;99.90
25825;DHT22;13658;44.534;18.694;2023-05-16T10:11:53;24.70;99.90
25825;DHT22;13658;44.534;18.694;2023-05-16T10:14:21;24.70;99.90
25825;DHT22;13658;44.534;18.694;2023-05-16T10:16:48;24.70;99.90
25825;DHT22;13658;44.534;18.694;2023-05-16T10:19:16;25.20;99.90
25825;DHT22;13658;44.534;18.694;2023-05-16T10:21:49;25.40;99.90
25825;DHT22;13658;44.534;18.694;2023-05-16T10:24:21;25.30;99.90
25825;DHT22;13658;44.534;18.694;2023-05-16T10:26:50;24.90;99.90
25825;DHT22;13658;44.534;18.694;2023-05-16T10:29:18;24.80;99.90
25825;DHT22;13658;44.534;18.694;2023-05-16T10:31:47;24.60;99.90
25825;DHT22;13658;44.534;18.694;2023-05-16T10:34:13;24.20;99.90
25825;DHT22;13658;44.534;18.694;2023-05-16T10:36:40;23.90;99.90
25825;DHT22;13658;44.534;18.694;2023-05-16T10:39:07;23.50;99.90
25825;DHT22;13658;44.534;18.694;2023-05-16T10:41:34;23.10;99.90
25825;DHT22;13658;44.534;18.694;2023-05-16T10:44:00;23.10;99.90
25825;DHT22;13658;44.534;18.694;2023-05-16T10:46:27;22.80;99.90
25825;DHT22;13658;44.534;18.694;2023-05-16T10:48:55;22.70;99.90
25825;DHT22;13658;44.534;18.694;2023-05-16T10:53:51;22.60;99.90
25825;DHT22;13658;44.534;18.694;2023-05-16T10:56:25;22.70;99.90
25825;DHT22;13658;44.534;18.694;2023-05-16T10:58:53;22.70;99.90
25825;DHT22;13658;44.534;18.694;2023-05-16T11:01:26;22.80;99.90
25825;DHT22;13658;44.534;18.694;2023-05-16T11:11:42;23.30;99.90
25825;DHT22;13658;44.534;18.694;2023-05-16T11:14:08;23.40;99.90
25825;DHT22;13658;44.534;18.694;2023-05-16T11:16:35;23.20;99.90
25825;DHT22;13658;44.534;18.694;2023-05-16T11:19:08;23.20;99.90
25825;DHT22;13658;44.534;18.694;2023-05-16T11:24:58;23.60;99.90
25825;DHT22;13658;44.534;18.694;2023-05-16T11:30:19;23.60;99.90
25825;DHT22;13658;44.534;18.694;2023-05-16T11:32:47;23.80;99.90
25825;DHT22;13658;44.534;18.694;2023-05-16T11:35:14;23.60;99.90
25825;DHT22;13658;44.534;18.694;2023-05-16T11:37:40;23.90;99.90
25825;DHT22;13658;44.534;18.694;2023-05-16T11:40:08;23.80;99.90
25825;DHT22;13658;44.534;18.694;2023-05-16T11:42:38;23.70;99.90
25825;DHT22;13658;44.534;18.694;2023-05-16T11:45:09;23.60;99.90
25825;DHT22;13658;44.534;18.694;2023-05-16T11:47:38;23.60;99.90
25825;DHT22;13658;44.534;18.694;2023-05-16T11:50:12;23.50;99.90
25825;DHT22;13658;44.534;18.694;2023-05-16T11:52:40;23.40;99.90
25825;DHT22;13658;44.534;18.694;2023-05-16T11:55:08;23.50;99.90
25825;DHT22;13658;44.534;18.694;2023-05-16T11:57:40;23.50;99.90
25825;DHT22;13658;44.534;18.694;2023-05-16T12:00:19;23.40;99.90
25825;DHT22;13658;44.534;18.694;2023-05-16T12:02:46;23.20;99.90
25825;DHT22;13658;44.534;18.694;2023-05-16T12:05:13;23.20;99.90
25825;DHT22;13658;44.534;18.694;2023-05-16T12:07:42;23.20;99.90
25825;DHT22;13658;44.534;18.694;2023-05-16T12:10:11;23.10;99.90
25825;DHT22;13658;44.534;18.694;2023-05-16T12:12:40;23.10;99.90
25825;DHT22;13658;44.534;18.694;2023-05-16T12:15:08;23.10;99.90
25825;DHT22;13658;44.534;18.694;2023-05-16T12:17:35;23.30;99.90
25825;DHT22;13658;44.534;18.694;2023-05-16T12:20:02;23.50;99.90
25825;DHT22;13658;44.534;18.694;2023-05-16T12:22:32;23.60;99.90
25825;DHT22;13658;44.534;18.694;2023-05-16T12:24:59;23.50;99.90
25825;DHT22;13658;44.534;18.694;2023-05-16T12:27:41;23.50;99.90
25825;DHT22;13658;44.534;18.694;2023-05-16T12:30:08;23.50;99.90
25825;DHT22;13658;44.534;18.694;2023-05-16T12:32:36;23.50;99.90
25825;DHT22;13658;44.534;18.694;2023-05-16T12:35:02;23.50;99.90
25825;DHT22;13658;44.534;18.694;2023-05-16T12:37:28;23.30;99.90
25825;DHT22;13658;44.534;18.694;2023-05-16T12:39:59;23.30;99.90
25825;DHT22;13658;44.534;18.694;2023-05-16T12:42:29;23.10;99.90
25825;DHT22;13658;44.534;18.694;2023-05-16T12:44:55;23.10;99.90
25825;DHT22;13658;44.534;18.694;2023-05-16T12:47:21;23.20;99.90
25825;DHT22;13658;44.534;18.694;2023-05-16T12:49:48;23.30;99.90
25825;DHT22;13658;44.534;18.694;2023-05-16T12:52:18;23.30;99.90
25825;DHT22;13658;44.534;18.694;2023-05-16T12:54:46;23.30;99.90
25825;DHT22;13658;44.534;18.694;2023-05-16T12:57:12;23.30;99.90
25825;DHT22;13658;44.534;18.694;2023-05-16T12:59:38;23.30;99.90
25825;DHT22;13658;44.534;18.694;2023-05-16T13:02:04;23.40;99.90
25825;DHT22;13658;44.534;18.694;2023-05-16T13:04:30;23.40;99.90
25825;DHT22;13658;44.534;18.694;2023-05-16T13:06:57;23.40;99.90
25825;DHT22;13658;44.534;18.694;2023-05-16T13:09:23;23.40;99.90
25825;DHT22;13658;44.534;18.694;2023-05-16T13:11:49;23.50;99.90
25825;DHT22;13658;44.534;18.694;2023-05-16T13:14:18;23.50;99.90
25825;DHT22;13658;44.534;18.694;2023-05-16T13:16:44;23.50;99.90
25825;DHT22;13658;44.534;18.694;2023-05-16T13:19:09;23.50;99.90
25825;DHT22;13658;44.534;18.694;2023-05-16T13:21:36;23.30;99.90
25825;DHT22;13658;44.534;18.694;2023-05-16T13:24:02;23.20;99.90
25825;DHT22;13658;44.534;18.694;2023-05-16T13:26:28;23.10;99.90
25825;DHT22;13658;44.534;18.694;2023-05-16T13:28:54;23.20;99.90
25825;DHT22;13658;44.534;18.694;2023-05-16T13:31:21;23.20;99.90
25825;DHT22;13658;44.534;18.694;2023-05-16T13:33:47;23.20;99.90
25825;DHT22;13658;44.534;18.694;2023-05-16T13:36:13;23.30;99.90
25825;DHT22;13658;44.534;18.694;2023-05-16T13:38:39;23.30;99.90
25825;DHT22;13658;44.534;18.694;2023-05-16T13:41:07;23.40;99.90
25825;DHT22;13658;44.534;18.694;2023-05-16T13:43:32;23.30;99.90
25825;DHT22;13658;44.534;18.694;2023-05-16T13:45:58;23.40;99.90
25825;DHT22;13658;44.534;18.694;2023-05-16T13:48:24;23.40;99.90
25825;DHT22;13658;44.534;18.694;2023-05-16T13:50:50;23.30;99.90
25825;DHT22;13658;44.534;18.694;2023-05-16T13:53:18;22.70;99.90
25825;DHT22;13658;44.534;18.694;2023-05-16T13:55:44;20.90;99.90
25825;DHT22;13658;44.534;18.694;2023-05-16T13:58:10;19.10;99.90
25825;DHT22;13658;44.534;18.694;2023-05-16T14:00:36;17.30;99.90
25825;DHT22;13658;44.534;18.694;2023-05-16T14:03:02;16.40;99.90
25825;DHT22;13658;44.534;18.694;2023-05-16T14:05:28;15.70;99.90
25825;DHT22;13658;44.534;18.694;2023-05-16T14:07:54;15.30;99.90
25825;DHT22;13658;44.534;18.694;2023-05-16T14:10:20;15.30;99.90
25825;DHT22;13658;44.534;18.694;2023-05-16T14:12:46;15.40;99.90
25825;DHT22;13658;44.534;18.694;2023-05-16T14:15:13;15.40;99.90
25825;DHT22;13658;44.534;18.694;2023-05-16T14:17:39;15.50;99.90
25825;DHT22;13658;44.534;18.694;2023-05-16T14:20:06;15.60;99.90
25825;DHT22;13658;44.534;18.694;2023-05-16T14:22:36;15.90;99.90
25825;DHT22;13658;44.534;18.694;2023-05-16T14:25:02;16.00;99.90
25825;DHT22;13658;44.534;18.694;2023-05-16T14:27:28;16.20;99.90
25825;DHT22;13658;44.534;18.694;2023-05-16T14:29:54;16.30;99.90
25825;DHT22;13658;44.534;18.694;2023-05-16T14:32:20;16.60;99.90
25825;DHT22;13658;44.534;18.694;2023-05-16T14:34:46;16.80;99.90
25825;DHT22;13658;44.534;18.694;2023-05-16T14:37:12;16.90;99.90
25825;DHT22;13658;44.534;18.694;2023-05-16T14:39:41;17.10;99.90
25825;DHT22;13658;44.534;18.694;2023-05-16T14:42:09;17.20;99.90
25825;DHT22;13658;44.534;18.694;2023-05-16T14:44:37;17.30;99.90
25825;DHT22;13658;44.534;18.694;2023-05-16T14:47:03;17.30;99.90
25825;DHT22;13658;44.534;18.694;2023-05-16T14:49:29;17.40;99.90
25825;DHT22;13658;44.534;18.694;2023-05-16T14:51:55;17.60;99.90
25825;DHT22;13658;44.534;18.694;2023-05-16T14:54:21;17.70;99.90
25825;DHT22;13658;44.534;18.694;2023-05-16T14:56:47;17.80;99.90
25825;DHT22;13658;44.534;18.694;2023-05-16T14:59:13;17.80;99.90
25825;DHT22;13658;44.534;18.694;2023-05-16T15:01:39;17.90;99.90
25825;DHT22;13658;44.534;18.694;2023-05-16T15:04:05;18.10;99.90
25825;DHT22;13658;44.534;18.694;2023-05-16T15:06:31;18.10;99.90
25825;DHT22;13658;44.534;18.694;2023-05-16T15:08:57;18.30;99.90
25825;DHT22;13658;44.534;18.694;2023-05-16T15:11:23;18.40;99.90
25825;DHT22;13658;44.534;18.694;2023-05-16T15:13:49;18.50;99.90
25825;DHT22;13658;44.534;18.694;2023-05-16T15:16:15;18.70;99.90
25825;DHT22;13658;44.534;18.694;2023-05-16T15:18:42;18.80;99.90
25825;DHT22;13658;44.534;18.694;2023-05-16T15:21:08;19.00;99.90
25825;DHT22;13658;44.534;18.694;2023-05-16T15:23:37;19.10;99.90
25825;DHT22;13658;44.534;18.694;2023-05-16T15:26:03;19.20;99.90
25825;DHT22;13658;44.534;18.694;2023-05-16T15:28:29;19.30;99.90
25825;DHT22;13658;44.534;18.694;2023-05-16T15:30:55;19.30;99.90
25825;DHT22;13658;44.534;18.694;2023-05-16T15:33:21;19.30;99.90